sensor_id;sensor_type;location;lat;lon;timestamp;P1;durP1;ratioP1;P2;durP2;ratioP2
10134;SDS011;5107;48.850;8.924;2023-03-01T00:01:44;17.27;;;9.03;;
10134;SDS011;5107;48.850;8.924;2023-03-01T00:04:11;16.53;;;8.97;;
10134;SDS011;5107;48.850;8.924;2023-03-01T00:06:38;14.77;;;9.00;;
10134;SDS011;5107;48.850;8.924;2023-03-01T00:09:11;16.63;;;8.73;;
10134;SDS011;5107;48.850;8.924;2023-03-01T00:11:39;14.23;;;8.43;;
10134;SDS011;5107;48.850;8.924;2023-03-01T00:14:07;17.40;;;9.67;;
10134;SDS011;5107;48.850;8.924;2023-03-01T00:16:34;17.57;;;9.77;;
10134;SDS011;5107;48.850;8.924;2023-03-01T00:19:06;15.83;;;9.03;;
10134;SDS011;5107;48.850;8.924;2023-03-01T00:21:34;17.33;;;9.67;;
10134;SDS011;5107;48.850;8.924;2023-03-01T00:24:01;16.17;;;9.17;;
10134;SDS011;5107;48.850;8.924;2023-03-01T00:26:31;15.57;;;9.23;;
10134;SDS011;5107;48.850;8.924;2023-03-01T00:28:58;16.20;;;8.77;;
10134;SDS011;5107;48.850;8.924;2023-03-01T00:31:28;18.60;;;10.33;;
10134;SDS011;5107;48.850;8.924;2023-03-01T00:33:58;27.43;;;13.63;;
10134;SDS011;5107;48.850;8.924;2023-03-01T00:36:29;31.30;;;14.93;;
10134;SDS011;5107;48.850;8.924;2023-03-01T00:38:58;26.87;;;13.83;;
10134;SDS011;5107;48.850;8.924;2023-03-01T00:41:26;22.83;;;11.63;;
10134;SDS011;5107;48.850;8.924;2023-03-01T00:43:54;16.97;;;10.20;;
10134;SDS011;5107;48.850;8.924;2023-03-01T00:46:22;16.00;;;10.13;;
10134;SDS011;5107;48.850;8.924;2023-03-01T00:48:52;24.40;;;12.40;;
10134;SDS011;5107;48.850;8.924;2023-03-01T00:51:21;15.83;;;10.00;;
10134;SDS011;5107;48.850;8.924;2023-03-01T00:53:52;14.07;;;8.87;;
10134;SDS011;5107;48.850;8.924;2023-03-01T00:56:21;17.43;;;8.53;;
10134;SDS011;5107;48.850;8.924;2023-03-01T00:58:49;18.90;;;9.73;;
10134;SDS011;5107;48.850;8.924;2023-03-01T01:01:17;20.37;;;10.70;;
10134;SDS011;5107;48.850;8.924;2023-03-01T01:03:49;22.33;;;11.30;;
10134;SDS011;5107;48.850;8.924;2023-03-01T01:06:19;23.97;;;10.73;;
10134;SDS011;5107;48.850;8.924;2023-03-01T01:08:49;20.27;;;10.30;;
10134;SDS011;5107;48.850;8.924;2023-03-01T01:11:19;21.13;;;10.70;;
10134;SDS011;5107;48.850;8.924;2023-03-01T01:13:48;19.87;;;11.20;;
10134;SDS011;5107;48.850;8.924;2023-03-01T01:16:16;23.60;;;11.47;;
10134;SDS011;5107;48.850;8.924;2023-03-01T01:18:45;17.90;;;10.03;;
10134;SDS011;5107;48.850;8.924;2023-03-01T01:21:18;17.53;;;9.20;;
10134;SDS011;5107;48.850;8.924;2023-03-01T01:23:46;16.07;;;8.57;;
10134;SDS011;5107;48.850;8.924;2023-03-01T01:26:20;17.80;;;9.53;;
10134;SDS011;5107;48.850;8.924;2023-03-01T01:28:49;19.87;;;10.07;;
10134;SDS011;5107;48.850;8.924;2023-03-01T01:31:19;19.37;;;9.40;;
10134;SDS011;5107;48.850;8.924;2023-03-01T01:33:48;17.17;;;9.23;;
10134;SDS011;5107;48.850;8.924;2023-03-01T01:36:16;19.33;;;9.83;;
10134;SDS011;5107;48.850;8.924;2023-03-01T01:38:44;14.40;;;9.37;;
10134;SDS011;5107;48.850;8.924;2023-03-01T01:41:11;19.03;;;10.70;;
10134;SDS011;5107;48.850;8.924;2023-03-01T01:43:41;16.63;;;10.23;;
10134;SDS011;5107;48.850;8.924;2023-03-01T01:46:13;15.50;;;9.07;;
10134;SDS011;5107;48.850;8.924;2023-03-01T01:48:48;19.37;;;9.67;;
10134;SDS011;5107;48.850;8.924;2023-03-01T01:51:23;18.00;;;9.77;;
10134;SDS011;5107;48.850;8.924;2023-03-01T01:54:03;18.87;;;9.23;;
10134;SDS011;5107;48.850;8.924;2023-03-01T01:56:38;18.30;;;9.77;;
10134;SDS011;5107;48.850;8.924;2023-03-01T01:59:11;18.07;;;9.70;;
10134;SDS011;5107;48.850;8.924;2023-03-01T02:01:39;17.67;;;9.37;;
10134;SDS011;5107;48.850;8.924;2023-03-01T02:04:06;18.70;;;9.60;;
10134;SDS011;5107;48.850;8.924;2023-03-01T02:06:34;17.20;;;9.90;;
10134;SDS011;5107;48.850;8.924;2023-03-01T02:09:07;17.33;;;9.80;;
10134;SDS011;5107;48.850;8.924;2023-03-01T02:11:38;22.07;;;9.73;;
10134;SDS011;5107;48.850;8.924;2023-03-01T02:14:06;17.60;;;9.40;;
10134;SDS011;5107;48.850;8.924;2023-03-01T02:16:35;19.30;;;9.40;;
10134;SDS011;5107;48.850;8.924;2023-03-01T02:19:02;16.33;;;9.67;;
10134;SDS011;5107;48.850;8.924;2023-03-01T02:21:34;18.70;;;9.87;;
10134;SDS011;5107;48.850;8.924;2023-03-01T02:24:17;15.40;;;9.20;;
10134;SDS011;5107;48.850;8.924;2023-03-01T02:26:55;16.77;;;9.10;;
10134;SDS011;5107;48.850;8.924;2023-03-01T02:29:26;17.43;;;9.70;;
10134;SDS011;5107;48.850;8.924;2023-03-01T02:31:54;14.67;;;8.80;;
10134;SDS011;5107;48.850;8.924;2023-03-01T02:34:25;16.77;;;9.27;;
10134;SDS011;5107;48.850;8.924;2023-03-01T02:36:55;15.40;;;9.23;;
10134;SDS011;5107;48.850;8.924;2023-03-01T02:39:26;15.83;;;9.63;;
10134;SDS011;5107;48.850;8.924;2023-03-01T02:41:58;18.53;;;9.60;;
10134;SDS011;5107;48.850;8.924;2023-03-01T02:44:28;19.00;;;10.03;;
10134;SDS011;5107;48.850;8.924;2023-03-01T02:46:56;17.43;;;10.10;;
10134;SDS011;5107;48.850;8.924;2023-03-01T02:49:31;19.33;;;10.17;;
10134;SDS011;5107;48.850;8.924;2023-03-01T02:52:04;19.10;;;9.87;;
10134;SDS011;5107;48.850;8.924;2023-03-01T02:54:53;16.93;;;9.93;;
10134;SDS011;5107;48.850;8.924;2023-03-01T02:57:28;18.53;;;9.57;;
10134;SDS011;5107;48.850;8.924;2023-03-01T02:59:59;21.03;;;10.17;;
10134;SDS011;5107;48.850;8.924;2023-03-01T03:02:36;19.23;;;10.50;;
10134;SDS011;5107;48.850;8.924;2023-03-01T03:05:08;14.63;;;8.67;;
10134;SDS011;5107;48.850;8.924;2023-03-01T03:07:39;18.80;;;10.03;;
10134;SDS011;5107;48.850;8.924;2023-03-01T03:10:09;21.23;;;10.03;;
10134;SDS011;5107;48.850;8.924;2023-03-01T03:12:39;17.97;;;9.50;;
10134;SDS011;5107;48.850;8.924;2023-03-01T03:15:09;16.53;;;9.43;;
10134;SDS011;5107;48.850;8.924;2023-03-01T03:17:38;18.80;;;10.10;;
10134;SDS011;5107;48.850;8.924;2023-03-01T03:20:09;20.07;;;9.77;;
10134;SDS011;5107;48.850;8.924;2023-03-01T03:22:44;19.90;;;10.73;;
10134;SDS011;5107;48.850;8.924;2023-03-01T03:25:12;19.20;;;10.40;;
10134;SDS011;5107;48.850;8.924;2023-03-01T03:27:40;18.50;;;10.40;;
10134;SDS011;5107;48.850;8.924;2023-03-01T03:30:12;17.07;;;9.97;;
10134;SDS011;5107;48.850;8.924;2023-03-01T03:32:43;18.20;;;10.30;;
10134;SDS011;5107;48.850;8.924;2023-03-01T03:35:17;20.83;;;10.90;;
10134;SDS011;5107;48.850;8.924;2023-03-01T03:37:45;20.97;;;10.47;;
10134;SDS011;5107;48.850;8.924;2023-03-01T03:40:28;16.87;;;10.10;;
10134;SDS011;5107;48.850;8.924;2023-03-01T03:42:58;18.60;;;9.80;;
10134;SDS011;5107;48.850;8.924;2023-03-01T03:45:28;18.47;;;10.03;;
10134;SDS011;5107;48.850;8.924;2023-03-01T03:48:00;19.10;;;9.90;;
10134;SDS011;5107;48.850;8.924;2023-03-01T03:50:27;17.97;;;10.50;;
10134;SDS011;5107;48.850;8.924;2023-03-01T03:52:55;23.80;;;11.50;;
10134;SDS011;5107;48.850;8.924;2023-03-01T03:55:22;18.87;;;10.63;;
10134;SDS011;5107;48.850;8.924;2023-03-01T03:57:53;19.07;;;11.03;;
10134;SDS011;5107;48.850;8.924;2023-03-01T04:00:20;20.30;;;11.17;;
10134;SDS011;5107;48.850;8.924;2023-03-01T04:02:50;18.43;;;11.07;;
10134;SDS011;5107;48.850;8.924;2023-03-01T04:05:21;21.27;;;10.90;;
10134;SDS011;5107;48.850;8.924;2023-03-01T04:07:49;19.87;;;10.77;;
10134;SDS011;5107;48.850;8.924;2023-03-01T04:10:26;17.33;;;9.50;;
10134;SDS011;5107;48.850;8.924;2023-03-01T04:12:54;19.20;;;10.33;;
10134;SDS011;5107;48.850;8.924;2023-03-01T04:15:22;15.83;;;9.83;;
10134;SDS011;5107;48.850;8.924;2023-03-01T04:17:52;19.27;;;10.77;;
10134;SDS011;5107;48.850;8.924;2023-03-01T04:20:21;20.03;;;11.20;;
10134;SDS011;5107;48.850;8.924;2023-03-01T04:22:51;16.93;;;9.53;;
10134;SDS011;5107;48.850;8.924;2023-03-01T04:25:23;19.90;;;11.07;;
10134;SDS011;5107;48.850;8.924;2023-03-01T04:27:51;19.20;;;10.57;;
10134;SDS011;5107;48.850;8.924;2023-03-01T04:30:18;19.30;;;11.17;;
10134;SDS011;5107;48.850;8.924;2023-03-01T04:32:45;19.53;;;10.07;;
10134;SDS011;5107;48.850;8.924;2023-03-01T04:35:13;19.87;;;10.70;;
10134;SDS011;5107;48.850;8.924;2023-03-01T04:37:43;22.03;;;11.40;;
10134;SDS011;5107;48.850;8.924;2023-03-01T04:40:12;19.87;;;10.43;;
10134;SDS011;5107;48.850;8.924;2023-03-01T04:42:41;22.27;;;10.70;;
10134;SDS011;5107;48.850;8.924;2023-03-01T04:45:09;22.03;;;10.67;;
10134;SDS011;5107;48.850;8.924;2023-03-01T04:47:39;18.57;;;10.50;;
10134;SDS011;5107;48.850;8.924;2023-03-01T04:50:09;22.87;;;11.20;;
10134;SDS011;5107;48.850;8.924;2023-03-01T04:52:39;19.53;;;10.97;;
10134;SDS011;5107;48.850;8.924;2023-03-01T04:55:06;17.63;;;9.80;;
10134;SDS011;5107;48.850;8.924;2023-03-01T04:57:35;19.43;;;11.00;;
10134;SDS011;5107;48.850;8.924;2023-03-01T05:00:05;17.47;;;10.70;;
10134;SDS011;5107;48.850;8.924;2023-03-01T05:02:45;18.17;;;10.30;;
10134;SDS011;5107;48.850;8.924;2023-03-01T05:05:18;19.10;;;10.93;;
10134;SDS011;5107;48.850;8.924;2023-03-01T05:07:53;16.93;;;9.50;;
10134;SDS011;5107;48.850;8.924;2023-03-01T05:10:21;22.03;;;10.67;;
10134;SDS011;5107;48.850;8.924;2023-03-01T05:12:54;22.10;;;10.73;;
10134;SDS011;5107;48.850;8.924;2023-03-01T05:15:22;20.07;;;11.27;;
10134;SDS011;5107;48.850;8.924;2023-03-01T05:17:51;25.80;;;14.67;;
10134;SDS011;5107;48.850;8.924;2023-03-01T05:20:19;20.23;;;12.43;;
10134;SDS011;5107;48.850;8.924;2023-03-01T05:22:48;20.97;;;11.63;;
10134;SDS011;5107;48.850;8.924;2023-03-01T05:25:17;21.87;;;11.17;;
10134;SDS011;5107;48.850;8.924;2023-03-01T05:27:46;22.37;;;10.90;;
10134;SDS011;5107;48.850;8.924;2023-03-01T05:30:13;18.03;;;10.17;;
10134;SDS011;5107;48.850;8.924;2023-03-01T05:32:43;22.20;;;10.70;;
10134;SDS011;5107;48.850;8.924;2023-03-01T05:35:13;22.27;;;10.90;;
10134;SDS011;5107;48.850;8.924;2023-03-01T05:37:43;19.50;;;10.63;;
10134;SDS011;5107;48.850;8.924;2023-03-01T05:40:13;19.00;;;10.87;;
10134;SDS011;5107;48.850;8.924;2023-03-01T05:42:44;17.17;;;10.10;;
10134;SDS011;5107;48.850;8.924;2023-03-01T05:45:13;20.27;;;10.80;;
10134;SDS011;5107;48.850;8.924;2023-03-01T05:47:42;18.30;;;10.80;;
10134;SDS011;5107;48.850;8.924;2023-03-01T05:50:12;22.57;;;11.27;;
10134;SDS011;5107;48.850;8.924;2023-03-01T05:52:44;18.40;;;10.13;;
10134;SDS011;5107;48.850;8.924;2023-03-01T05:55:13;18.63;;;10.20;;
10134;SDS011;5107;48.850;8.924;2023-03-01T05:57:41;20.40;;;11.80;;
10134;SDS011;5107;48.850;8.924;2023-03-01T06:00:11;18.77;;;10.53;;
10134;SDS011;5107;48.850;8.924;2023-03-01T06:02:41;25.93;;;11.17;;
10134;SDS011;5107;48.850;8.924;2023-03-01T06:05:08;22.30;;;10.90;;
10134;SDS011;5107;48.850;8.924;2023-03-01T06:07:37;19.23;;;10.47;;
10134;SDS011;5107;48.850;8.924;2023-03-01T06:10:06;20.73;;;10.90;;
10134;SDS011;5107;48.850;8.924;2023-03-01T06:12:35;21.43;;;10.70;;
10134;SDS011;5107;48.850;8.924;2023-03-01T06:15:04;25.90;;;11.40;;
10134;SDS011;5107;48.850;8.924;2023-03-01T06:17:37;24.00;;;11.70;;
10134;SDS011;5107;48.850;8.924;2023-03-01T06:20:09;24.80;;;11.67;;
10134;SDS011;5107;48.850;8.924;2023-03-01T06:22:38;20.67;;;10.63;;
10134;SDS011;5107;48.850;8.924;2023-03-01T06:25:06;20.20;;;11.27;;
10134;SDS011;5107;48.850;8.924;2023-03-01T06:27:35;23.87;;;12.17;;
10134;SDS011;5107;48.850;8.924;2023-03-01T06:30:02;21.70;;;11.50;;
10134;SDS011;5107;48.850;8.924;2023-03-01T06:32:30;20.07;;;11.07;;
10134;SDS011;5107;48.850;8.924;2023-03-01T06:34:59;21.40;;;10.63;;
10134;SDS011;5107;48.850;8.924;2023-03-01T06:37:26;21.53;;;11.43;;
10134;SDS011;5107;48.850;8.924;2023-03-01T06:39:53;21.90;;;11.07;;
10134;SDS011;5107;48.850;8.924;2023-03-01T06:42:20;19.63;;;10.90;;
10134;SDS011;5107;48.850;8.924;2023-03-01T06:44:47;23.30;;;12.10;;
10134;SDS011;5107;48.850;8.924;2023-03-01T06:47:14;23.13;;;11.30;;
10134;SDS011;5107;48.850;8.924;2023-03-01T06:49:41;18.47;;;10.57;;
10134;SDS011;5107;48.850;8.924;2023-03-01T06:52:09;22.33;;;12.33;;
10134;SDS011;5107;48.850;8.924;2023-03-01T06:54:36;28.27;;;13.40;;
10134;SDS011;5107;48.850;8.924;2023-03-01T06:57:03;33.27;;;15.23;;
10134;SDS011;5107;48.850;8.924;2023-03-01T06:59:30;25.80;;;12.77;;
10134;SDS011;5107;48.850;8.924;2023-03-01T07:01:57;23.17;;;11.87;;
10134;SDS011;5107;48.850;8.924;2023-03-01T07:04:24;22.57;;;12.10;;
10134;SDS011;5107;48.850;8.924;2023-03-01T07:06:53;21.47;;;12.17;;
10134;SDS011;5107;48.850;8.924;2023-03-01T07:09:22;25.33;;;11.87;;
10134;SDS011;5107;48.850;8.924;2023-03-01T07:11:50;18.73;;;11.03;;
10134;SDS011;5107;48.850;8.924;2023-03-01T07:14:17;18.83;;;10.90;;
10134;SDS011;5107;48.850;8.924;2023-03-01T07:16:44;19.47;;;11.30;;
10134;SDS011;5107;48.850;8.924;2023-03-01T07:19:11;21.13;;;11.23;;
10134;SDS011;5107;48.850;8.924;2023-03-01T07:21:39;25.17;;;13.27;;
10134;SDS011;5107;48.850;8.924;2023-03-01T07:24:06;20.43;;;11.67;;
10134;SDS011;5107;48.850;8.924;2023-03-01T07:26:35;20.53;;;11.63;;
10134;SDS011;5107;48.850;8.924;2023-03-01T07:29:04;21.63;;;11.40;;
10134;SDS011;5107;48.850;8.924;2023-03-01T07:31:32;20.10;;;10.90;;
10134;SDS011;5107;48.850;8.924;2023-03-01T07:34:00;20.10;;;11.47;;
10134;SDS011;5107;48.850;8.924;2023-03-01T07:36:28;23.57;;;11.80;;
10134;SDS011;5107;48.850;8.924;2023-03-01T07:38:55;19.53;;;11.30;;
10134;SDS011;5107;48.850;8.924;2023-03-01T07:41:23;20.27;;;11.90;;
10134;SDS011;5107;48.850;8.924;2023-03-01T07:43:51;22.63;;;11.97;;
10134;SDS011;5107;48.850;8.924;2023-03-01T07:46:18;22.33;;;11.80;;
10134;SDS011;5107;48.850;8.924;2023-03-01T07:48:45;21.77;;;11.90;;
10134;SDS011;5107;48.850;8.924;2023-03-01T07:51:13;18.87;;;10.87;;
10134;SDS011;5107;48.850;8.924;2023-03-01T07:53:40;20.90;;;11.27;;
10134;SDS011;5107;48.850;8.924;2023-03-01T07:56:07;20.40;;;12.07;;
10134;SDS011;5107;48.850;8.924;2023-03-01T07:58:36;20.17;;;12.00;;
10134;SDS011;5107;48.850;8.924;2023-03-01T08:01:07;18.90;;;11.47;;
10134;SDS011;5107;48.850;8.924;2023-03-01T08:03:37;17.87;;;11.30;;
10134;SDS011;5107;48.850;8.924;2023-03-01T08:06:05;24.30;;;11.87;;
10134;SDS011;5107;48.850;8.924;2023-03-01T08:08:34;18.00;;;11.13;;
10134;SDS011;5107;48.850;8.924;2023-03-01T08:11:02;19.97;;;12.03;;
10134;SDS011;5107;48.850;8.924;2023-03-01T08:13:32;20.47;;;12.10;;
10134;SDS011;5107;48.850;8.924;2023-03-01T08:16:03;22.23;;;12.97;;
10134;SDS011;5107;48.850;8.924;2023-03-01T08:18:34;23.23;;;11.77;;
10134;SDS011;5107;48.850;8.924;2023-03-01T08:21:02;24.37;;;12.17;;
10134;SDS011;5107;48.850;8.924;2023-03-01T08:23:30;20.60;;;12.53;;
10134;SDS011;5107;48.850;8.924;2023-03-01T08:26:04;20.53;;;12.70;;
10134;SDS011;5107;48.850;8.924;2023-03-01T08:28:34;20.07;;;11.57;;
10134;SDS011;5107;48.850;8.924;2023-03-01T08:31:02;19.70;;;11.87;;
10134;SDS011;5107;48.850;8.924;2023-03-01T08:33:30;21.73;;;12.80;;
10134;SDS011;5107;48.850;8.924;2023-03-01T08:36:04;19.93;;;11.90;;
10134;SDS011;5107;48.850;8.924;2023-03-01T08:38:32;20.43;;;12.07;;
10134;SDS011;5107;48.850;8.924;2023-03-01T08:40:59;20.20;;;12.33;;
10134;SDS011;5107;48.850;8.924;2023-03-01T08:43:27;21.63;;;12.67;;
10134;SDS011;5107;48.850;8.924;2023-03-01T08:45:54;23.33;;;13.03;;
10134;SDS011;5107;48.850;8.924;2023-03-01T08:48:22;19.10;;;12.13;;
10134;SDS011;5107;48.850;8.924;2023-03-01T08:50:50;22.80;;;13.40;;
10134;SDS011;5107;48.850;8.924;2023-03-01T08:53:17;23.73;;;12.43;;
10134;SDS011;5107;48.850;8.924;2023-03-01T08:55:44;22.83;;;12.90;;
10134;SDS011;5107;48.850;8.924;2023-03-01T08:58:12;21.20;;;12.73;;
10134;SDS011;5107;48.850;8.924;2023-03-01T09:00:40;23.73;;;12.87;;
10134;SDS011;5107;48.850;8.924;2023-03-01T09:03:07;21.80;;;12.40;;
10134;SDS011;5107;48.850;8.924;2023-03-01T09:05:34;21.73;;;11.93;;
10134;SDS011;5107;48.850;8.924;2023-03-01T09:08:03;23.30;;;12.40;;
10134;SDS011;5107;48.850;8.924;2023-03-01T09:10:31;23.40;;;13.73;;
10134;SDS011;5107;48.850;8.924;2023-03-01T09:12:58;23.33;;;13.27;;
10134;SDS011;5107;48.850;8.924;2023-03-01T09:15:25;23.80;;;12.83;;
10134;SDS011;5107;48.850;8.924;2023-03-01T09:17:52;21.13;;;13.03;;
10134;SDS011;5107;48.850;8.924;2023-03-01T09:20:19;23.20;;;13.03;;
10134;SDS011;5107;48.850;8.924;2023-03-01T09:22:46;23.37;;;12.73;;
10134;SDS011;5107;48.850;8.924;2023-03-01T09:25:14;27.10;;;13.90;;
10134;SDS011;5107;48.850;8.924;2023-03-01T09:27:42;20.23;;;12.50;;
10134;SDS011;5107;48.850;8.924;2023-03-01T09:30:09;23.43;;;13.00;;
10134;SDS011;5107;48.850;8.924;2023-03-01T09:32:37;24.17;;;13.20;;
10134;SDS011;5107;48.850;8.924;2023-03-01T09:35:08;21.57;;;13.07;;
10134;SDS011;5107;48.850;8.924;2023-03-01T09:37:35;22.40;;;12.87;;
10134;SDS011;5107;48.850;8.924;2023-03-01T09:40:05;21.70;;;12.73;;
10134;SDS011;5107;48.850;8.924;2023-03-01T09:42:46;26.33;;;13.27;;
10134;SDS011;5107;48.850;8.924;2023-03-01T09:45:22;21.77;;;13.07;;
10134;SDS011;5107;48.850;8.924;2023-03-01T09:47:56;22.50;;;12.50;;
10134;SDS011;5107;48.850;8.924;2023-03-01T09:50:23;22.70;;;12.47;;
10134;SDS011;5107;48.850;8.924;2023-03-01T09:53:00;22.23;;;12.57;;
10134;SDS011;5107;48.850;8.924;2023-03-01T09:55:34;23.87;;;12.73;;
10134;SDS011;5107;48.850;8.924;2023-03-01T10:01:18;21.67;;;12.53;;
10134;SDS011;5107;48.850;8.924;2023-03-01T10:04:04;16.43;;;9.47;;
10134;SDS011;5107;48.850;8.924;2023-03-01T10:06:51;23.77;;;12.07;;
10134;SDS011;5107;48.850;8.924;2023-03-01T10:09:29;23.07;;;12.47;;
10134;SDS011;5107;48.850;8.924;2023-03-01T10:12:00;20.93;;;12.13;;
10134;SDS011;5107;48.850;8.924;2023-03-01T10:14:36;23.80;;;13.90;;
10134;SDS011;5107;48.850;8.924;2023-03-01T10:17:09;19.00;;;11.50;;
10134;SDS011;5107;48.850;8.924;2023-03-01T10:19:53;23.50;;;12.43;;
10134;SDS011;5107;48.850;8.924;2023-03-01T10:22:22;25.30;;;12.93;;
10134;SDS011;5107;48.850;8.924;2023-03-01T10:24:57;21.90;;;12.50;;
10134;SDS011;5107;48.850;8.924;2023-03-01T10:27:29;20.67;;;12.80;;
10134;SDS011;5107;48.850;8.924;2023-03-01T10:30:10;24.87;;;13.27;;
10134;SDS011;5107;48.850;8.924;2023-03-01T10:32:44;22.43;;;13.13;;
10134;SDS011;5107;48.850;8.924;2023-03-01T10:35:18;22.53;;;12.50;;
10134;SDS011;5107;48.850;8.924;2023-03-01T10:37:58;21.07;;;12.90;;
10134;SDS011;5107;48.850;8.924;2023-03-01T10:40:30;21.93;;;11.40;;
10134;SDS011;5107;48.850;8.924;2023-03-01T10:42:58;20.93;;;13.17;;
10134;SDS011;5107;48.850;8.924;2023-03-01T10:45:34;20.67;;;13.07;;
10134;SDS011;5107;48.850;8.924;2023-03-01T10:48:04;23.83;;;12.33;;
10134;SDS011;5107;48.850;8.924;2023-03-01T10:50:39;22.90;;;13.13;;
10134;SDS011;5107;48.850;8.924;2023-03-01T10:53:18;20.40;;;12.57;;
10134;SDS011;5107;48.850;8.924;2023-03-01T10:55:58;18.97;;;12.13;;
10134;SDS011;5107;48.850;8.924;2023-03-01T10:58:30;21.93;;;13.03;;
10134;SDS011;5107;48.850;8.924;2023-03-01T11:01:00;23.43;;;13.83;;
10134;SDS011;5107;48.850;8.924;2023-03-01T11:03:30;20.50;;;13.20;;
10134;SDS011;5107;48.850;8.924;2023-03-01T11:06:01;22.33;;;12.73;;
10134;SDS011;5107;48.850;8.924;2023-03-01T11:08:45;22.27;;;12.97;;
10134;SDS011;5107;48.850;8.924;2023-03-01T11:11:17;20.13;;;13.37;;
10134;SDS011;5107;48.850;8.924;2023-03-01T11:13:53;22.97;;;12.63;;
10134;SDS011;5107;48.850;8.924;2023-03-01T11:16:26;20.73;;;12.80;;
10134;SDS011;5107;48.850;8.924;2023-03-01T11:19:00;24.83;;;12.67;;
10134;SDS011;5107;48.850;8.924;2023-03-01T11:21:41;25.87;;;14.10;;
10134;SDS011;5107;48.850;8.924;2023-03-01T11:24:24;21.00;;;13.40;;
10134;SDS011;5107;48.850;8.924;2023-03-01T11:27:01;22.67;;;13.80;;
10134;SDS011;5107;48.850;8.924;2023-03-01T11:29:34;23.27;;;14.37;;
10134;SDS011;5107;48.850;8.924;2023-03-01T11:32:07;19.50;;;11.80;;
10134;SDS011;5107;48.850;8.924;2023-03-01T11:34:40;22.07;;;12.90;;
10134;SDS011;5107;48.850;8.924;2023-03-01T11:37:16;20.60;;;12.70;;
10134;SDS011;5107;48.850;8.924;2023-03-01T11:39:57;20.60;;;12.90;;
10134;SDS011;5107;48.850;8.924;2023-03-01T11:42:34;18.97;;;12.27;;
10134;SDS011;5107;48.850;8.924;2023-03-01T11:45:14;22.63;;;13.17;;
10134;SDS011;5107;48.850;8.924;2023-03-01T11:47:46;22.33;;;13.43;;
10134;SDS011;5107;48.850;8.924;2023-03-01T11:50:28;19.80;;;12.10;;
10134;SDS011;5107;48.850;8.924;2023-03-01T11:53:07;21.03;;;13.13;;
10134;SDS011;5107;48.850;8.924;2023-03-01T11:55:53;21.77;;;12.60;;
10134;SDS011;5107;48.850;8.924;2023-03-01T11:58:38;21.30;;;11.20;;
10134;SDS011;5107;48.850;8.924;2023-03-01T12:01:25;20.90;;;13.23;;
10134;SDS011;5107;48.850;8.924;2023-03-01T12:04:14;20.43;;;11.73;;
10134;SDS011;5107;48.850;8.924;2023-03-01T12:07:23;22.57;;;10.87;;
10134;SDS011;5107;48.850;8.924;2023-03-01T12:10:01;19.90;;;10.03;;
10134;SDS011;5107;48.850;8.924;2023-03-01T12:12:58;20.50;;;12.50;;
10134;SDS011;5107;48.850;8.924;2023-03-01T12:15:59;15.23;;;9.90;;
10134;SDS011;5107;48.850;8.924;2023-03-01T12:18:48;19.67;;;12.33;;
10134;SDS011;5107;48.850;8.924;2023-03-01T12:21:51;19.40;;;12.23;;
10134;SDS011;5107;48.850;8.924;2023-03-01T12:24:51;19.80;;;11.10;;
10134;SDS011;5107;48.850;8.924;2023-03-01T12:27:53;18.83;;;11.87;;
10134;SDS011;5107;48.850;8.924;2023-03-01T12:30:43;19.37;;;11.50;;
10134;SDS011;5107;48.850;8.924;2023-03-01T12:33:51;18.23;;;12.23;;
10134;SDS011;5107;48.850;8.924;2023-03-01T12:36:30;17.47;;;10.97;;
10134;SDS011;5107;48.850;8.924;2023-03-01T12:39:26;18.37;;;11.37;;
10134;SDS011;5107;48.850;8.924;2023-03-01T12:42:11;22.30;;;11.93;;
10134;SDS011;5107;48.850;8.924;2023-03-01T12:44:57;20.77;;;12.53;;
10134;SDS011;5107;48.850;8.924;2023-03-01T12:48:04;18.50;;;12.00;;
10134;SDS011;5107;48.850;8.924;2023-03-01T12:50:48;19.17;;;12.13;;
10134;SDS011;5107;48.850;8.924;2023-03-01T12:53:21;21.03;;;12.40;;
10134;SDS011;5107;48.850;8.924;2023-03-01T12:55:53;19.30;;;12.33;;
10134;SDS011;5107;48.850;8.924;2023-03-01T12:58:28;18.97;;;12.97;;
10134;SDS011;5107;48.850;8.924;2023-03-01T13:01:08;18.77;;;12.53;;
10134;SDS011;5107;48.850;8.924;2023-03-01T13:03:53;20.07;;;12.73;;
10134;SDS011;5107;48.850;8.924;2023-03-01T13:06:44;19.07;;;12.33;;
10134;SDS011;5107;48.850;8.924;2023-03-01T13:09:27;19.03;;;12.03;;
10134;SDS011;5107;48.850;8.924;2023-03-01T13:12:14;19.50;;;12.93;;
10134;SDS011;5107;48.850;8.924;2023-03-01T13:15:27;20.20;;;12.97;;
10134;SDS011;5107;48.850;8.924;2023-03-01T13:17:58;20.07;;;11.60;;
10134;SDS011;5107;48.850;8.924;2023-03-01T13:20:30;20.47;;;13.43;;
10134;SDS011;5107;48.850;8.924;2023-03-01T13:23:02;18.80;;;12.93;;
10134;SDS011;5107;48.850;8.924;2023-03-01T13:25:35;22.37;;;13.40;;
10134;SDS011;5107;48.850;8.924;2023-03-01T13:34:44;22.33;;;12.63;;
10134;SDS011;5107;48.850;8.924;2023-03-01T13:37:29;19.77;;;12.67;;
10134;SDS011;5107;48.850;8.924;2023-03-01T13:40:00;19.23;;;12.30;;
10134;SDS011;5107;48.850;8.924;2023-03-01T13:42:51;23.47;;;14.33;;
10134;SDS011;5107;48.850;8.924;2023-03-01T13:45:21;22.77;;;13.97;;
10134;SDS011;5107;48.850;8.924;2023-03-01T13:48:08;22.20;;;13.17;;
10134;SDS011;5107;48.850;8.924;2023-03-01T13:50:44;20.77;;;13.40;;
10134;SDS011;5107;48.850;8.924;2023-03-01T13:53:17;22.20;;;13.57;;
10134;SDS011;5107;48.850;8.924;2023-03-01T13:55:47;25.60;;;14.33;;
10134;SDS011;5107;48.850;8.924;2023-03-01T13:58:21;22.30;;;12.83;;
10134;SDS011;5107;48.850;8.924;2023-03-01T14:00:57;18.87;;;13.17;;
10134;SDS011;5107;48.850;8.924;2023-03-01T14:03:26;22.03;;;14.03;;
10134;SDS011;5107;48.850;8.924;2023-03-01T14:05:59;20.63;;;12.90;;
10134;SDS011;5107;48.850;8.924;2023-03-01T14:08:32;23.43;;;12.80;;
10134;SDS011;5107;48.850;8.924;2023-03-01T14:14:07;20.80;;;13.53;;
10134;SDS011;5107;48.850;8.924;2023-03-01T14:16:52;19.03;;;10.43;;
10134;SDS011;5107;48.850;8.924;2023-03-01T14:19:27;19.53;;;12.10;;
10134;SDS011;5107;48.850;8.924;2023-03-01T14:22:00;23.73;;;13.37;;
10134;SDS011;5107;48.850;8.924;2023-03-01T14:24:44;22.97;;;12.57;;
10134;SDS011;5107;48.850;8.924;2023-03-01T14:27:15;20.80;;;12.97;;
10134;SDS011;5107;48.850;8.924;2023-03-01T14:29:43;19.07;;;11.33;;
10134;SDS011;5107;48.850;8.924;2023-03-01T14:32:22;20.23;;;13.07;;
10134;SDS011;5107;48.850;8.924;2023-03-01T14:34:52;21.70;;;12.80;;
10134;SDS011;5107;48.850;8.924;2023-03-01T14:37:20;20.60;;;13.47;;
10134;SDS011;5107;48.850;8.924;2023-03-01T14:39:51;15.80;;;10.27;;
10134;SDS011;5107;48.850;8.924;2023-03-01T14:42:19;20.83;;;13.30;;
10134;SDS011;5107;48.850;8.924;2023-03-01T14:44:50;22.10;;;13.20;;
10134;SDS011;5107;48.850;8.924;2023-03-01T14:47:25;19.40;;;10.90;;
10134;SDS011;5107;48.850;8.924;2023-03-01T14:49:57;21.30;;;12.67;;
10134;SDS011;5107;48.850;8.924;2023-03-01T14:52:30;20.03;;;12.70;;
10134;SDS011;5107;48.850;8.924;2023-03-01T14:55:02;20.40;;;11.30;;
10134;SDS011;5107;48.850;8.924;2023-03-01T14:57:33;18.50;;;12.17;;
10134;SDS011;5107;48.850;8.924;2023-03-01T15:00:01;19.60;;;13.03;;
10134;SDS011;5107;48.850;8.924;2023-03-01T15:02:33;21.80;;;13.30;;
10134;SDS011;5107;48.850;8.924;2023-03-01T15:05:02;17.20;;;11.70;;
10134;SDS011;5107;48.850;8.924;2023-03-01T15:07:33;18.67;;;12.00;;
10134;SDS011;5107;48.850;8.924;2023-03-01T15:10:06;22.63;;;12.97;;
10134;SDS011;5107;48.850;8.924;2023-03-01T15:12:41;20.17;;;12.53;;
10134;SDS011;5107;48.850;8.924;2023-03-01T15:18:06;21.30;;;12.33;;
10134;SDS011;5107;48.850;8.924;2023-03-01T15:20:43;18.13;;;11.10;;
10134;SDS011;5107;48.850;8.924;2023-03-01T15:23:16;21.67;;;12.23;;